createdAt,value
2022-08-17T00:00:01.610Z,23.58
2022-08-17T00:05:04.350Z,23.53
2022-08-17T00:09:54.000Z,23.53
2022-08-17T00:14:43.686Z,23.45
2022-08-17T00:19:34.149Z,23.31
2022-08-17T00:24:27.823Z,23.38
2022-08-17T00:29:19.854Z,23.32
2022-08-17T00:34:10.675Z,23.28
2022-08-17T00:39:00.378Z,23.26
2022-08-17T00:43:54.594Z,23.18
2022-08-17T00:48:45.568Z,23.15
2022-08-17T00:53:37.745Z,23.07
2022-08-17T00:58:36.302Z,23.10
2022-08-17T01:03:29.182Z,23.09
2022-08-17T01:08:22.283Z,23.07
2022-08-17T01:13:12.554Z,23.00
2022-08-17T01:18:02.165Z,22.94
2022-08-17T01:22:55.134Z,22.93
2022-08-17T01:27:45.744Z,22.90
2022-08-17T01:32:36.302Z,22.92
2022-08-17T01:37:32.730Z,22.85
2022-08-17T01:42:33.603Z,22.87
2022-08-17T01:47:23.290Z,22.85
2022-08-17T01:52:15.058Z,22.86
2022-08-17T01:57:06.226Z,22.84
2022-08-17T02:01:59.057Z,22.74
2022-08-17T02:06:53.214Z,22.56
2022-08-17T02:11:44.059Z,22.34
2022-08-17T02:16:38.301Z,22.13
2022-08-17T02:21:32.932Z,22.13
2022-08-17T02:26:24.022Z,22.11
2022-08-17T02:31:16.902Z,22.00
2022-08-17T02:36:08.988Z,21.73
2022-08-17T02:41:01.810Z,21.45
2022-08-17T02:45:51.508Z,21.21
2022-08-17T02:50:51.609Z,21.03
2022-08-17T02:55:44.260Z,20.83
2022-08-17T03:00:41.433Z,20.67
2022-08-17T03:05:34.277Z,20.51
2022-08-17T03:10:25.698Z,20.39
2022-08-17T03:15:20.383Z,20.43
2022-08-17T03:20:14.938Z,20.40
2022-08-17T03:25:06.683Z,20.35
2022-08-17T03:30:00.599Z,20.30
2022-08-17T03:34:50.592Z,20.20
2022-08-17T03:39:43.118Z,20.01
2022-08-17T03:44:32.874Z,20.08
2022-08-17T03:49:35.273Z,20.01
2022-08-17T03:54:37.869Z,19.99
2022-08-17T03:59:31.208Z,20.03
2022-08-17T04:04:27.528Z,19.94
2022-08-17T04:09:17.999Z,20.01
2022-08-17T04:14:09.354Z,20.03
2022-08-17T04:19:01.631Z,20.01
2022-08-17T04:23:51.572Z,20.05
2022-08-17T04:28:42.297Z,20.07
2022-08-17T04:33:32.718Z,20.04
2022-08-17T04:38:27.388Z,20.17
2022-08-17T04:43:20.285Z,20.18
2022-08-17T04:48:09.950Z,20.08
2022-08-17T04:53:00.615Z,20.21
2022-08-17T04:57:53.307Z,20.23
2022-08-17T05:02:49.819Z,20.28
2022-08-17T05:07:40.571Z,20.29
2022-08-17T05:12:30.258Z,20.39
2022-08-17T05:17:22.876Z,20.39
2022-08-17T05:22:12.774Z,20.40
2022-08-17T05:27:06.504Z,20.38
2022-08-17T05:31:58.238Z,20.38
2022-08-17T05:36:50.528Z,20.43
2022-08-17T05:41:40.814Z,20.45
2022-08-17T05:46:36.003Z,20.47
2022-08-17T05:52:12.517Z,20.42
2022-08-17T05:57:33.126Z,20.43
2022-08-17T06:02:32.157Z,20.40
2022-08-17T06:07:34.620Z,20.29
2022-08-17T06:12:46.933Z,20.31
2022-08-17T06:17:38.710Z,20.28
2022-08-17T06:22:37.115Z,20.32
2022-08-17T06:27:35.932Z,20.35
2022-08-17T06:32:27.355Z,20.35
2022-08-17T06:37:33.411Z,20.47
2022-08-17T06:42:55.125Z,20.51
2022-08-17T06:47:57.648Z,20.61
2022-08-17T06:52:56.829Z,20.62
2022-08-17T06:57:54.000Z,20.73
2022-08-17T07:02:53.212Z,20.77
2022-08-17T07:08:07.260Z,20.81
2022-08-17T07:13:15.436Z,20.85
2022-08-17T07:18:07.242Z,20.89
2022-08-17T07:23:12.387Z,20.89
2022-08-17T07:28:09.218Z,20.76
2022-08-17T07:33:02.947Z,20.76
2022-08-17T07:38:06.071Z,20.75
2022-08-17T07:43:31.486Z,20.72
2022-08-17T07:48:25.405Z,20.70
2022-08-17T07:53:20.893Z,20.71
2022-08-17T07:58:14.517Z,20.75
2022-08-17T08:03:17.960Z,20.68
2022-08-17T08:08:23.568Z,20.82
2022-08-17T08:13:17.981Z,20.80
2022-08-17T08:18:53.587Z,20.82
2022-08-17T08:23:49.434Z,20.81
2022-08-17T08:28:48.141Z,20.91
2022-08-17T08:33:52.043Z,20.86
2022-08-17T08:38:54.012Z,20.92
2022-08-17T08:43:53.265Z,20.90
2022-08-17T08:49:12.273Z,20.88
2022-08-17T08:54:09.837Z,20.85
2022-08-17T08:59:10.762Z,20.85
2022-08-17T09:04:25.135Z,20.92
2022-08-17T09:09:31.375Z,21.00
2022-08-17T09:14:29.681Z,21.06
2022-08-17T09:19:31.833Z,21.13
2022-08-17T09:24:30.402Z,21.23
2022-08-17T09:29:35.345Z,21.34
2022-08-17T09:34:36.947Z,21.37
2022-08-17T09:39:35.526Z,21.44
2022-08-17T09:44:39.824Z,21.50
2022-08-17T09:49:40.915Z,21.65
2022-08-17T09:54:41.280Z,21.76
2022-08-17T09:59:56.941Z,21.77
2022-08-17T10:05:02.540Z,21.68
2022-08-17T10:10:01.980Z,21.78
2022-08-17T10:15:17.478Z,21.82
2022-08-17T10:20:16.288Z,21.85
2022-08-17T10:25:24.879Z,21.83
2022-08-17T10:30:23.208Z,21.76
2022-08-17T10:35:40.076Z,21.77
2022-08-17T10:40:43.945Z,21.65
2022-08-17T10:45:41.644Z,21.55
2022-08-17T10:51:01.346Z,21.51
2022-08-17T10:56:27.917Z,21.47
2022-08-17T11:01:19.796Z,21.39
2022-08-17T11:06:21.829Z,21.37
2022-08-17T11:11:25.970Z,21.34
2022-08-17T11:16:48.143Z,21.25
2022-08-17T11:22:03.539Z,20.95
2022-08-17T11:27:12.170Z,20.77
2022-08-17T11:32:11.231Z,20.63
2022-08-17T11:37:36.063Z,20.54
2022-08-17T11:43:00.928Z,20.48
2022-08-17T11:48:28.293Z,20.36
2022-08-17T11:54:03.596Z,20.31
2022-08-17T11:59:07.390Z,20.28
2022-08-17T12:04:29.809Z,20.26
2022-08-17T12:09:34.651Z,20.34
2022-08-17T12:15:05.872Z,20.32
2022-08-17T12:19:45.416Z,20.28
2022-08-17T12:24:52.382Z,20.22
2022-08-17T12:29:47.405Z,20.28
2022-08-17T12:34:45.796Z,20.26
2022-08-17T12:39:37.945Z,20.29
2022-08-17T12:44:32.185Z,20.38
2022-08-17T12:49:30.712Z,20.40
2022-08-17T12:54:30.766Z,20.44
2022-08-17T12:59:30.155Z,20.47
2022-08-17T13:04:23.590Z,20.42
2022-08-17T13:09:35.783Z,20.48
2022-08-17T13:14:32.592Z,20.53
2022-08-17T13:19:39.918Z,20.65
2022-08-17T13:24:38.467Z,20.59
2022-08-17T13:29:35.771Z,20.66
2022-08-17T13:35:04.692Z,20.66
2022-08-17T13:40:01.836Z,20.71
2022-08-17T13:44:58.651Z,20.56
2022-08-17T13:49:50.362Z,20.52
2022-08-17T13:59:55.011Z,20.66
2022-08-17T14:04:48.276Z,20.62
2022-08-17T14:09:41.741Z,20.64
2022-08-17T14:14:34.330Z,20.66
2022-08-17T14:19:31.908Z,20.78
2022-08-17T14:24:28.549Z,20.89
2022-08-17T14:29:19.269Z,20.96
2022-08-17T14:34:11.284Z,20.96
2022-08-17T14:39:05.429Z,20.98
2022-08-17T14:43:57.568Z,20.99
2022-08-17T14:48:57.402Z,21.04
2022-08-17T14:53:48.968Z,21.01
2022-08-17T14:58:43.105Z,20.97
2022-08-17T15:03:35.495Z,20.92
2022-08-17T15:08:25.493Z,20.96
2022-08-17T15:13:21.301Z,21.01
2022-08-17T15:18:13.857Z,20.99
2022-08-17T15:23:04.025Z,21.00
2022-08-17T15:27:57.122Z,21.01
2022-08-17T15:32:54.512Z,21.00
2022-08-17T15:37:48.830Z,21.03
2022-08-17T15:42:41.879Z,21.08
2022-08-17T15:47:35.572Z,21.09
2022-08-17T15:52:28.079Z,21.11
2022-08-17T15:57:21.514Z,21.12
2022-08-17T16:03:44.716Z,21.15
2022-08-17T16:07:27.002Z,21.21
2022-08-17T16:12:24.767Z,21.16
2022-08-17T16:17:39.744Z,21.29
2022-08-17T16:22:37.604Z,21.22
2022-08-17T16:27:32.571Z,21.28
2022-08-17T16:32:31.461Z,21.21
2022-08-17T16:37:23.354Z,21.11
2022-08-17T16:42:27.665Z,21.09
2022-08-17T16:47:20.214Z,21.01
2022-08-17T16:52:12.668Z,20.97
2022-08-17T16:57:04.589Z,20.90
2022-08-17T17:01:54.369Z,20.83
2022-08-17T17:06:57.768Z,20.77
2022-08-17T17:11:52.325Z,20.78
2022-08-17T17:16:51.683Z,20.75
2022-08-17T17:21:52.665Z,20.70
2022-08-17T17:27:09.021Z,20.73
2022-08-17T17:32:10.083Z,20.70
2022-08-17T17:37:10.361Z,20.71
2022-08-17T17:42:07.925Z,20.65
2022-08-17T17:47:02.170Z,20.63
2022-08-17T17:52:10.004Z,20.59
2022-08-17T17:57:19.201Z,20.59
2022-08-17T18:02:37.083Z,20.57
2022-08-17T18:07:42.205Z,20.49
2022-08-17T18:12:43.781Z,20.44
2022-08-17T18:17:39.575Z,20.45
2022-08-17T18:22:35.253Z,20.40
2022-08-17T18:27:30.485Z,20.35
2022-08-17T18:32:43.811Z,20.30
2022-08-17T18:37:45.183Z,20.30
2022-08-17T18:42:39.730Z,20.25
2022-08-17T18:47:33.455Z,20.19
2022-08-17T18:52:30.702Z,20.25
2022-08-17T18:57:33.579Z,20.22
2022-08-17T19:07:42.627Z,20.18
2022-08-17T19:12:40.783Z,20.21
2022-08-17T19:17:39.620Z,20.21
2022-08-17T19:22:41.676Z,20.17
2022-08-17T19:27:46.476Z,20.18
2022-08-17T19:32:47.148Z,20.15
2022-08-17T19:37:46.091Z,20.14
2022-08-17T19:42:50.283Z,20.13
2022-08-17T19:47:55.199Z,20.12
2022-08-17T19:52:54.641Z,20.12
2022-08-17T19:58:02.191Z,20.11
2022-08-17T20:02:58.482Z,20.09
2022-08-17T20:07:58.569Z,20.08
2022-08-17T20:12:56.746Z,20.08
2022-08-17T20:17:52.836Z,20.06
2022-08-17T20:23:01.794Z,20.10
2022-08-17T20:28:02.891Z,19.98
2022-08-17T20:32:59.635Z,20.05
2022-08-17T20:37:56.175Z,20.08
2022-08-17T20:42:46.869Z,20.05
2022-08-17T20:48:07.492Z,20.02
2022-08-17T20:52:59.207Z,20.05
2022-08-17T20:57:51.017Z,20.04
2022-08-17T21:02:45.382Z,20.03
2022-08-17T21:07:55.948Z,19.95
2022-08-17T21:12:50.392Z,19.98
2022-08-17T21:17:53.216Z,19.94
2022-08-17T21:22:57.804Z,19.95
2022-08-17T21:27:58.700Z,19.92
2022-08-17T21:33:23.966Z,19.86
2022-08-17T21:38:17.442Z,19.88
2022-08-17T21:43:20.095Z,19.86
2022-08-17T21:48:17.638Z,19.84
2022-08-17T21:53:09.249Z,19.82
2022-08-17T21:58:13.464Z,19.75
2022-08-17T22:03:10.518Z,19.83
2022-08-17T22:08:16.761Z,19.74
2022-08-17T22:13:16.454Z,19.74
2022-08-17T22:18:11.760Z,19.71
2022-08-17T22:23:29.002Z,19.74
2022-08-17T22:28:40.065Z,19.81
2022-08-17T22:33:39.782Z,19.78
2022-08-17T22:38:36.771Z,19.76
2022-08-17T22:43:34.947Z,19.80
2022-08-17T22:48:29.265Z,19.65
2022-08-17T22:53:34.789Z,19.77
2022-08-17T22:58:40.297Z,19.77
2022-08-17T23:03:30.520Z,19.74
2022-08-17T23:08:21.800Z,19.69
2022-08-17T23:13:13.405Z,19.63
2022-08-17T23:18:06.361Z,19.53
2022-08-17T23:22:56.078Z,19.51
2022-08-17T23:27:47.788Z,19.47
2022-08-17T23:32:37.742Z,19.40
2022-08-17T23:37:45.972Z,19.37
2022-08-17T23:42:43.328Z,19.28
2022-08-17T23:47:37.575Z,19.17
2022-08-17T23:52:28.227Z,19.26
2022-08-17T23:57:33.649Z,19.18
